Time;durP1;ratioP1;P1;durP2;ratioP2;P2;SDS_P1;SDS_P2;PMS_P1;PMS_P2;Temp;Humidity;BMP_temperature;BMP_pressure;BME280_temperature;BME280_humidity;BME280_pressure;Samples;Min_cycle;Max_cycle;Signal;HPM_P1;HPM_P2
2024/01/08 00:02:16;;;;;;;14.10;3.77;;;0.40;1.00;;;;;;5051117;28;20189;-83
2024/01/08 00:04:41;;;;;;;6.07;3.20;;;0.40;1.00;;;;;;5063793;28;20277;-84
2024/01/08 00:07:07;;;;;;;5.90;3.93;;;0.40;1.00;;;;;;5063119;28;20208;-84
2024/01/08 00:09:32;;;;;;;5.50;3.53;;;0.40;1.00;;;;;;5060528;28;20178;-83
2024/01/08 00:11:58;;;;;;;4.27;3.00;;;0.40;1.00;;;;;;5060190;28;20214;-84
2024/01/08 00:14:23;;;;;;;16.40;3.63;;;0.40;1.00;;;;;;5058873;28;20206;-83
2024/01/08 00:16:48;;;;;;;6.50;4.13;;;0.40;1.00;;;;;;5047218;28;20185;-85
2024/01/08 00:19:14;;;;;;;8.30;3.57;;;0.40;1.00;;;;;;5058002;28;20197;-83
2024/01/08 00:21:41;;;;;;;4.97;3.97;;;0.40;1.00;;;;;;5054791;28;20210;-84
2024/01/08 00:24:07;;;;;;;5.85;4.20;;;0.30;1.00;;;;;;5048976;28;20181;-83
2024/01/08 00:26:32;;;;;;;4.47;3.60;;;0.30;1.00;;;;;;5046422;28;20277;-83
2024/01/08 00:28:59;;;;;;;5.73;3.97;;;0.30;1.00;;;;;;5062233;28;20245;-85
2024/01/08 00:31:24;;;;;;;4.97;4.55;;;0.20;1.00;;;;;;5064560;28;20235;-85
2024/01/08 00:33:50;;;;;;;5.73;3.57;;;0.20;1.00;;;;;;5062559;28;20226;-84
2024/01/08 00:36:15;;;;;;;7.47;4.10;;;0.30;1.00;;;;;;5054604;28;20188;-82
2024/01/08 00:38:41;;;;;;;7.37;4.10;;;0.30;1.00;;;;;;5062393;28;20177;-84
2024/01/08 00:41:07;;;;;;;7.30;4.90;;;0.30;1.00;;;;;;5040282;28;20220;-84
2024/01/08 00:43:32;;;;;;;5.33;4.47;;;0.30;1.00;;;;;;5056038;28;20200;-85
2024/01/08 00:45:58;;;;;;;4.20;3.57;;;0.30;1.00;;;;;;5040858;28;20189;-86
2024/01/08 00:48:23;;;;;;;4.97;3.80;;;0.40;1.00;;;;;;5058082;28;20268;-83
2024/01/08 00:50:51;;;;;;;4.70;3.87;;;0.30;1.00;;;;;;5057186;28;20222;-84
2024/01/08 00:53:17;;;;;;;5.07;4.40;;;0.30;1.00;;;;;;5044998;28;20213;-84
2024/01/08 00:55:42;;;;;;;7.77;5.73;;;0.40;1.00;;;;;;5058484;28;20840;-82
2024/01/08 00:58:07;;;;;;;9.93;3.87;;;0.40;1.00;;;;;;5048945;28;20221;-83
2024/01/08 01:00:33;;;;;;;3.93;3.50;;;0.40;1.00;;;;;;5059468;28;20209;-85
2024/01/08 01:02:59;;;;;;;5.00;4.00;;;0.40;1.00;;;;;;5040231;28;20205;-82
2024/01/08 01:05:24;;;;;;;3.70;2.07;;;0.40;1.00;;;;;;5048546;28;20182;-85
2024/01/08 01:07:50;;;;;;;5.80;2.67;;;0.40;1.00;;;;;;5053738;28;20216;-84
2024/01/08 01:10:15;;;;;;;3.97;2.63;;;0.30;1.00;;;;;;5048985;28;20254;-83
2024/01/08 01:12:41;;;;;;;5.47;3.07;;;0.30;1.00;;;;;;5066358;28;20213;-83
2024/01/08 01:15:07;;;;;;;5.53;3.17;;;0.30;1.00;;;;;;5066505;28;20195;-83
2024/01/08 01:17:32;;;;;;;3.00;2.30;;;0.30;1.00;;;;;;5068690;28;20832;-84
2024/01/08 01:19:58;;;;;;;2.17;1.97;;;0.30;1.00;;;;;;5069207;28;20453;-84
2024/01/08 01:22:23;;;;;;;3.87;2.87;;;0.30;1.00;;;;;;5065194;28;20216;-85
2024/01/08 01:24:49;;;;;;;3.30;2.67;;;0.30;1.00;;;;;;5063650;28;20659;-84
2024/01/08 01:27:14;;;;;;;2.97;2.13;;;0.30;1.00;;;;;;5062847;28;21056;-84
2024/01/08 01:29:40;;;;;;;3.10;2.80;;;0.30;1.00;;;;;;5062337;28;20258;-82
2024/01/08 01:32:05;;;;;;;2.83;2.40;;;0.30;1.00;;;;;;5068553;28;20217;-85
2024/01/08 01:34:31;;;;;;;3.90;2.60;;;0.30;1.00;;;;;;5064942;28;20679;-85
2024/01/08 01:36:56;;;;;;;2.77;2.07;;;0.30;1.00;;;;;;5067295;28;20189;-84
2024/01/08 01:39:25;;;;;;;3.97;2.43;;;0.30;1.00;;;;;;5044289;28;20316;-83
2024/01/08 01:41:51;;;;;;;6.00;2.67;;;0.30;1.00;;;;;;5068504;28;20205;-84
2024/01/08 01:44:16;;;;;;;3.75;2.78;;;0.40;1.00;;;;;;5062888;28;20185;-84
2024/01/08 01:46:48;;;;;;;2.33;2.10;;;0.30;1.00;;;;;;5067012;28;20189;-85
2024/01/08 01:49:17;;;;;;;6.32;2.95;;;0.40;1.00;;;;;;5048876;28;20194;-84
2024/01/08 01:51:47;;;;;;;6.70;3.33;;;0.40;1.00;;;;;;5066332;28;20746;-83
2024/01/08 01:54:15;;;;;;;4.00;3.03;;;0.40;1.00;;;;;;5066798;28;20233;-84
2024/01/08 01:56:41;;;;;;;4.10;3.13;;;0.40;1.00;;;;;;5044289;28;20208;-84
2024/01/08 01:59:08;;;;;;;5.90;3.58;;;0.40;1.00;;;;;;5049587;28;20188;-84
2024/01/08 02:01:35;;;;;;;4.50;3.40;;;0.40;1.00;;;;;;5062068;28;20694;-83
2024/01/08 02:04:01;;;;;;;6.38;4.53;;;0.40;1.00;;;;;;5046626;28;20557;-83
2024/01/08 02:06:28;;;;;;;8.93;3.45;;;0.40;1.00;;;;;;5064977;28;20185;-84
2024/01/08 02:08:54;;;;;;;6.55;4.53;;;0.40;1.00;;;;;;5055709;28;20181;-84
2024/01/08 02:11:20;;;;;;;6.32;4.63;;;0.40;1.00;;;;;;5053206;28;20671;-85
2024/01/08 02:13:46;;;;;;;5.35;4.07;;;0.40;1.00;;;;;;5053949;28;20222;-84
2024/01/08 02:16:12;;;;;;;8.10;4.60;;;0.40;1.00;;;;;;5047547;28;20724;-84
2024/01/08 02:18:38;;;;;;;5.95;4.75;;;0.40;1.00;;;;;;5057318;28;20436;-83
2024/01/08 02:21:03;;;;;;;5.20;3.27;;;0.30;1.00;;;;;;5055725;28;20577;-84
2024/01/08 02:23:29;;;;;;;6.20;4.40;;;0.30;1.00;;;;;;5040350;28;20182;-84
2024/01/08 02:25:55;;;;;;;7.23;5.03;;;0.30;1.00;;;;;;5056889;28;20189;-83
2024/01/08 02:28:21;;;;;;;6.60;4.72;;;0.30;1.00;;;;;;5056980;28;20670;-83
2024/01/08 02:30:46;;;;;;;9.20;5.10;;;0.30;1.00;;;;;;5054487;28;20205;-84
2024/01/08 02:33:12;;;;;;;8.63;5.70;;;0.30;1.00;;;;;;5057587;28;20227;-84
2024/01/08 02:35:37;;;;;;;5.73;4.33;;;0.30;1.00;;;;;;5060088;28;20187;-83
2024/01/08 02:38:03;;;;;;;8.70;4.90;;;0.20;1.00;;;;;;5057999;28;20174;-84
2024/01/08 02:40:29;;;;;;;7.10;4.13;;;0.20;1.00;;;;;;5042563;28;20644;-84
2024/01/08 02:42:54;;;;;;;9.70;5.20;;;0.20;1.00;;;;;;5037690;28;20196;-85
2024/01/08 02:45:20;;;;;;;10.57;6.13;;;0.10;1.00;;;;;;5057509;28;20261;-84
2024/01/08 02:47:45;;;;;;;8.47;4.70;;;0.10;1.00;;;;;;5060107;28;20197;-84
2024/01/08 02:50:11;;;;;;;8.03;4.83;;;0.10;1.00;;;;;;5062491;28;20218;-84
2024/01/08 02:52:37;;;;;;;8.73;4.97;;;0.10;1.00;;;;;;5046592;28;20213;-86
2024/01/08 02:55:03;;;;;;;9.33;5.60;;;0.10;1.00;;;;;;5060765;28;20237;-85
2024/01/08 02:57:29;;;;;;;7.30;4.53;;;0.00;1.00;;;;;;5054254;28;20190;-85
2024/01/08 02:59:55;;;;;;;8.15;5.68;;;0.00;1.00;;;;;;5054382;28;20444;-84
2024/01/08 03:02:22;;;;;;;6.70;5.20;;;0.00;1.00;;;;;;5062175;28;20237;-85
2024/01/08 03:04:48;;;;;;;7.00;5.07;;;-0.10;1.00;;;;;;5055323;28;20212;-83
2024/01/08 03:07:17;;;;;;;6.93;5.00;;;-0.10;1.00;;;;;;5056065;28;20189;-85
2024/01/08 03:09:44;;;;;;;7.47;5.72;;;-0.20;1.00;;;;;;5053816;28;20189;-82
2024/01/08 03:12:10;;;;;;;7.28;5.78;;;-0.20;1.00;;;;;;5042562;28;20198;-84
2024/01/08 03:14:36;;;;;;;7.53;5.25;;;-0.20;1.00;;;;;;5063416;28;20220;-84
2024/01/08 03:17:01;;;;;;;8.37;5.33;;;-0.20;1.00;;;;;;5055199;28;20548;-82
2024/01/08 03:19:27;;;;;;;6.53;4.43;;;-0.20;1.00;;;;;;5041549;28;20686;-84
2024/01/08 03:21:52;;;;;;;7.13;4.37;;;-0.20;1.00;;;;;;5056713;28;20194;-85
2024/01/08 03:24:18;;;;;;;8.00;5.03;;;-0.30;1.00;;;;;;5055096;28;20185;-85
2024/01/08 03:26:43;;;;;;;8.67;5.40;;;-0.30;1.00;;;;;;5061236;28;20263;-84
2024/01/08 03:29:09;;;;;;;7.40;5.57;;;-0.30;1.00;;;;;;5039921;28;20225;-84
2024/01/08 03:31:41;;;;;;;8.70;5.40;;;-0.30;1.00;;;;;;5060188;28;20284;-84
2024/01/08 03:34:06;;;;;;;5.70;5.05;;;-0.30;1.00;;;;;;5068596;28;20200;-85
2024/01/08 03:36:33;;;;;;;9.60;5.77;;;-0.30;1.00;;;;;;5052275;28;20184;-82
2024/01/08 03:38:59;;;;;;;11.57;6.18;;;-0.30;1.00;;;;;;5046867;28;20186;-83
2024/01/08 03:41:24;;;;;;;15.50;7.77;;;-0.30;1.00;;;;;;5049252;28;20208;-84
2024/01/08 03:43:50;;;;;;;7.57;5.77;;;-0.30;1.00;;;;;;5059062;28;20440;-83
2024/01/08 03:46:16;;;;;;;7.07;4.87;;;-0.30;1.00;;;;;;5055357;28;20189;-84
2024/01/08 03:48:41;;;;;;;9.23;6.55;;;-0.30;1.00;;;;;;5041798;28;20287;-84
2024/01/08 03:51:07;;;;;;;8.50;5.33;;;-0.30;1.00;;;;;;5047016;28;20296;-82
2024/01/08 03:53:32;;;;;;;8.80;6.10;;;-0.20;39.50;;;;;;5053457;28;20213;-82
2024/01/08 03:56:00;;;;;;;9.27;5.77;;;-0.20;68.50;;;;;;5040714;28;20201;-83
2024/01/08 03:58:26;;;;;;;8.98;6.22;;;-0.20;71.50;;;;;;5059692;28;20945;-83
2024/01/08 04:00:53;;;;;;;8.17;5.80;;;-0.20;97.00;;;;;;5050545;28;20194;-86
2024/01/08 04:03:19;;;;;;;11.40;5.60;;;-0.10;99.90;;;;;;5040222;28;20214;-83
2024/01/08 04:05:45;;;;;;;10.87;7.97;;;-0.20;99.90;;;;;;5045570;28;20954;-83
2024/01/08 04:08:10;;;;;;;10.63;5.90;;;-0.20;99.90;;;;;;5045497;28;20441;-83
2024/01/08 04:10:36;;;;;;;8.97;5.90;;;-0.20;99.90;;;;;;5059800;28;21853;-87
2024/01/08 04:13:02;;;;;;;10.43;6.87;;;-0.20;99.90;;;;;;5065416;28;20871;-85
2024/01/08 04:15:27;;;;;;;9.47;6.60;;;-0.20;99.90;;;;;;5047561;28;20731;-85
2024/01/08 04:17:53;;;;;;;7.53;5.90;;;-0.20;99.90;;;;;;5063067;28;20194;-85
2024/01/08 04:20:18;;;;;;;9.70;6.03;;;-0.20;99.90;;;;;;5071881;28;20292;-85
2024/01/08 04:22:45;;;;;;;10.37;6.90;;;-0.20;99.90;;;;;;5062585;28;20861;-83
2024/01/08 04:25:11;;;;;;;12.30;6.85;;;-0.20;99.90;;;;;;5062955;28;20678;-85
2024/01/08 04:27:37;;;;;;;8.30;6.20;;;-0.20;99.90;;;;;;5070170;28;20182;-84
2024/01/08 04:30:03;;;;;;;9.30;6.32;;;-0.20;99.90;;;;;;5064640;28;20447;-84
2024/01/08 04:32:29;;;;;;;10.93;7.32;;;-0.10;99.90;;;;;;5062814;28;20201;-84
2024/01/08 04:34:54;;;;;;;11.03;8.10;;;-0.10;99.90;;;;;;5060103;28;20185;-84
2024/01/08 04:37:20;;;;;;;12.00;7.17;;;-0.10;99.90;;;;;;5068067;28;20276;-84
2024/01/08 04:39:46;;;;;;;9.60;6.50;;;-0.10;99.90;;;;;;5066257;28;20194;-84
2024/01/08 04:42:11;;;;;;;10.03;7.40;;;-0.10;99.90;;;;;;5063027;28;20182;-83
2024/01/08 04:44:37;;;;;;;8.43;6.50;;;0.00;99.90;;;;;;5050690;28;20432;-85
2024/01/08 04:47:03;;;;;;;11.37;7.10;;;0.00;99.90;;;;;;5046409;28;20181;-83
2024/01/08 04:49:28;;;;;;;13.80;6.33;;;0.00;99.90;;;;;;5059943;28;20539;-85
2024/01/08 04:51:56;;;;;;;9.33;6.90;;;0.00;99.90;;;;;;5061154;28;20206;-85
2024/01/08 04:54:22;;;;;;;10.32;5.68;;;0.00;99.90;;;;;;5063104;28;20729;-83
2024/01/08 04:56:50;;;;;;;10.83;7.37;;;-0.10;99.90;;;;;;5056631;28;20280;-84
2024/01/08 04:59:16;;;;;;;12.45;8.40;;;-0.10;99.90;;;;;;5065552;28;20181;-84
2024/01/08 05:01:41;;;;;;;8.90;6.77;;;-0.10;99.90;;;;;;5044668;28;20198;-84
2024/01/08 05:04:07;;;;;;;13.83;8.73;;;-0.10;99.90;;;;;;5054764;28;20190;-84
2024/01/08 05:06:32;;;;;;;9.83;7.27;;;-0.10;1.00;;;;;;5059213;28;20182;-83
2024/01/08 05:08:58;;;;;;;13.70;8.97;;;0.00;1.00;;;;;;5059126;28;20189;-83
2024/01/08 05:11:24;;;;;;;14.20;7.97;;;0.00;1.00;;;;;;5058503;28;20686;-84
2024/01/08 05:13:49;;;;;;;12.77;7.67;;;0.00;1.00;;;;;;5065422;28;20846;-85
2024/01/08 05:16:15;;;;;;;10.43;7.70;;;0.00;1.00;;;;;;5056016;28;20212;-85
2024/01/08 05:18:40;;;;;;;12.97;8.83;;;0.00;1.00;;;;;;5060434;28;20254;-84
2024/01/08 05:21:07;;;;;;;13.07;8.47;;;0.00;1.00;;;;;;5051977;28;20255;-84
2024/01/08 05:23:33;;;;;;;12.43;8.02;;;0.00;1.00;;;;;;5051097;28;20220;-85
2024/01/08 05:25:59;;;;;;;13.27;8.47;;;0.10;1.00;;;;;;5053119;28;20194;-85
2024/01/08 05:28:29;;;;;;;11.02;7.60;;;0.10;1.00;;;;;;5064111;28;20720;-84
2024/01/08 05:30:54;;;;;;;11.15;7.85;;;0.10;1.00;;;;;;5062445;28;20512;-85
2024/01/08 05:33:20;;;;;;;10.60;7.87;;;0.10;1.00;;;;;;5065449;28;20204;-86
2024/01/08 05:35:46;;;;;;;12.47;8.47;;;0.10;1.00;;;;;;5073004;28;20186;-85
2024/01/08 05:38:13;;;;;;;13.77;7.30;;;0.10;1.00;;;;;;5069513;28;20238;-86
2024/01/08 05:40:39;;;;;;;13.05;8.65;;;0.10;1.00;;;;;;5068901;28;20483;-86
2024/01/08 05:43:04;;;;;;;11.53;8.00;;;0.10;1.00;;;;;;5055851;28;20907;-85
2024/01/08 05:45:30;;;;;;;14.50;8.00;;;0.10;1.00;;;;;;5061677;28;20462;-85
2024/01/08 05:47:56;;;;;;;15.50;8.40;;;0.10;1.00;;;;;;5069025;28;20205;-85
2024/01/08 05:50:25;;;;;;;12.85;8.15;;;0.10;1.00;;;;;;5068975;28;20517;-85
2024/01/08 05:52:54;;;;;;;14.50;8.10;;;0.20;1.00;;;;;;5069977;28;20295;-85
2024/01/08 05:55:20;;;;;;;11.50;7.82;;;0.10;1.00;;;;;;5070868;28;20577;-85
2024/01/08 05:57:46;;;;;;;13.80;8.93;;;0.10;1.00;;;;;;5064110;28;20186;-85
2024/01/08 06:00:12;;;;;;;13.43;8.60;;;0.20;1.00;;;;;;5071151;28;20204;-86
2024/01/08 06:02:38;;;;;;;10.07;7.13;;;0.10;1.00;;;;;;5065440;28;20184;-85
2024/01/08 06:05:04;;;;;;;12.53;8.63;;;0.10;1.00;;;;;;5067238;28;20679;-84
2024/01/08 06:07:30;;;;;;;14.93;9.75;;;0.10;42.30;;;;;;5070205;28;20768;-85
2024/01/08 06:09:56;;;;;;;15.33;9.43;;;0.10;99.90;;;;;;5069379;28;20185;-84
2024/01/08 06:12:21;;;;;;;14.43;10.50;;;0.20;99.90;;;;;;5072823;28;20467;-84
2024/01/08 06:14:47;;;;;;;13.97;9.23;;;0.10;1.00;;;;;;5053720;28;20686;-84
2024/01/08 06:17:13;;;;;;;14.68;9.32;;;0.10;2.20;;;;;;5052454;28;20201;-84
2024/01/08 06:19:38;;;;;;;16.53;9.00;;;0.10;73.50;;;;;;5065630;28;20425;-84
2024/01/08 06:22:04;;;;;;;14.77;10.73;;;0.10;99.90;;;;;;5066246;28;20243;-85
2024/01/08 06:24:30;;;;;;;15.05;9.52;;;0.10;50.80;;;;;;5061682;28;20193;-85
2024/01/08 06:26:56;;;;;;;14.50;9.00;;;0.10;99.90;;;;;;5054649;28;20185;-83
2024/01/08 06:29:22;;;;;;;16.73;10.00;;;0.10;99.90;;;;;;5055531;28;20178;-84
2024/01/08 06:31:47;;;;;;;13.15;9.65;;;0.20;99.90;;;;;;5055650;28;20287;-85
2024/01/08 06:34:13;;;;;;;15.33;8.63;;;0.20;99.90;;;;;;5056385;28;20687;-85
2024/01/08 06:36:39;;;;;;;12.07;8.30;;;0.20;99.90;;;;;;5056461;28;20263;-83
2024/01/08 06:39:05;;;;;;;11.60;7.57;;;0.20;99.90;;;;;;5053390;28;20213;-85
2024/01/08 06:41:30;;;;;;;11.95;7.78;;;0.20;99.90;;;;;;5056666;28;20202;-87
2024/01/08 06:43:56;;;;;;;13.67;8.83;;;0.20;99.90;;;;;;5049443;28;20178;-87
2024/01/08 06:46:21;;;;;;;13.40;8.20;;;0.20;99.90;;;;;;5056411;28;20181;-86
2024/01/08 06:48:47;;;;;;;9.17;7.07;;;0.20;25.90;;;;;;5058379;28;20193;-87
2024/01/08 06:51:13;;;;;;;12.87;8.13;;;0.10;1.00;;;;;;5057172;28;20473;-87
2024/01/08 06:53:38;;;;;;;11.63;7.40;;;0.10;4.90;;;;;;5044069;28;20770;-86
2024/01/08 06:56:04;;;;;;;15.40;9.23;;;0.10;1.00;;;;;;5042786;28;20177;-88
2024/01/08 06:58:30;;;;;;;15.25;10.35;;;0.10;1.00;;;;;;5059772;28;20201;-88
2024/01/08 07:00:55;;;;;;;12.30;8.70;;;0.10;1.00;;;;;;5047374;28;20236;-87
2024/01/08 07:03:21;;;;;;;15.27;9.63;;;0.10;1.00;;;;;;5060117;28;20189;-86
2024/01/08 07:05:47;;;;;;;13.70;9.30;;;0.10;1.00;;;;;;5041343;28;20573;-88
2024/01/08 07:08:15;;;;;;;13.93;10.23;;;0.10;1.00;;;;;;5042881;28;20182;-88
2024/01/08 07:10:41;;;;;;;14.57;9.15;;;0.10;1.00;;;;;;5055327;28;20228;-85
2024/01/08 07:13:07;;;;;;;15.00;9.27;;;0.00;1.00;;;;;;5056388;28;20224;-87
2024/01/08 07:15:40;;;;;;;10.63;8.13;;;0.00;1.00;;;;;;5058724;28;20438;-88
2024/01/08 07:18:08;;;;;;;9.02;7.22;;;0.00;1.00;;;;;;5060088;28;20177;-86
2024/01/08 07:20:35;;;;;;;11.50;7.68;;;0.00;1.00;;;;;;5059684;28;20198;-87
2024/01/08 07:23:01;;;;;;;12.60;7.07;;;0.00;1.00;;;;;;5061806;28;20207;-87
2024/01/08 07:25:26;;;;;;;13.88;8.90;;;0.00;1.00;;;;;;5064850;28;20216;-87
2024/01/08 07:27:52;;;;;;;9.77;7.43;;;-0.10;99.90;;;;;;5049219;28;20189;-87
2024/01/08 07:30:17;;;;;;;13.03;8.77;;;0.00;1.00;;;;;;5066735;28;20205;-87
2024/01/08 07:32:43;;;;;;;16.90;9.50;;;0.00;99.90;;;;;;5062028;28;20208;-86
2024/01/08 07:35:08;;;;;;;11.70;7.60;;;0.00;1.00;;;;;;5069126;28;20190;-86
2024/01/08 07:37:34;;;;;;;9.17;7.20;;;0.10;99.90;;;;;;5060516;28;20256;-89
2024/01/08 07:39:59;;;;;;;18.27;8.43;;;0.10;99.90;;;;;;5065283;28;20231;-87
2024/01/08 07:42:25;;;;;;;13.10;8.00;;;0.20;99.90;;;;;;5069489;28;20231;-87
2024/01/08 07:44:50;;;;;;;11.87;8.33;;;0.30;99.90;;;;;;5069866;28;20209;-87
2024/01/08 07:47:16;;;;;;;14.03;8.30;;;0.30;99.90;;;;;;5066104;28;20181;-86
2024/01/08 07:49:41;;;;;;;14.17;6.83;;;0.30;10.70;;;;;;5046577;28;20226;-86
2024/01/08 07:52:07;;;;;;;9.93;6.87;;;0.30;1.00;;;;;;5057787;28;20209;-86
2024/01/08 07:54:32;;;;;;;10.20;7.47;;;0.30;1.00;;;;;;5040317;28;20726;-85
2024/01/08 07:56:58;;;;;;;14.73;8.90;;;0.30;1.00;;;;;;5058798;28;20239;-86
2024/01/08 07:59:23;;;;;;;14.50;7.97;;;0.30;1.00;;;;;;5033056;28;20205;-86
2024/01/08 08:01:49;;;;;;;11.37;7.50;;;0.30;1.00;;;;;;5040505;28;20206;-86
2024/01/08 08:04:15;;;;;;;11.13;8.03;;;0.30;1.00;;;;;;5049632;28;20189;-85
2024/01/08 08:06:41;;;;;;;12.68;8.35;;;0.30;99.90;;;;;;5035779;28;20190;-85
2024/01/08 08:09:06;;;;;;;17.50;9.50;;;0.30;99.90;;;;;;5059712;28;20189;-87
2024/01/08 08:11:32;;;;;;;12.90;8.13;;;0.20;99.90;;;;;;5062453;28;20288;-84
2024/01/08 08:13:58;;;;;;;14.57;9.23;;;0.20;99.90;;;;;;5065000;28;20205;-87
2024/01/08 08:16:24;;;;;;;12.27;7.70;;;0.20;1.00;;;;;;5059924;28;20440;-85
2024/01/08 08:18:49;;;;;;;16.95;9.23;;;0.20;1.00;;;;;;5058802;28;20209;-84
2024/01/08 08:21:15;;;;;;;13.93;8.63;;;0.20;1.00;;;;;;5043751;28;20234;-84
2024/01/08 08:23:42;;;;;;;16.00;9.90;;;0.20;99.90;;;;;;5044136;28;20213;-87
2024/01/08 08:26:07;;;;;;;15.00;10.10;;;0.10;99.90;;;;;;5056566;28;20185;-84
2024/01/08 08:28:33;;;;;;;12.40;9.00;;;0.10;1.00;;;;;;5066047;28;20181;-84
2024/01/08 08:30:58;;;;;;;16.60;10.87;;;0.20;1.00;;;;;;5062905;28;20209;-87
2024/01/08 08:33:24;;;;;;;15.23;9.47;;;0.10;1.00;;;;;;5058146;28;20220;-85
2024/01/08 08:35:49;;;;;;;16.70;8.90;;;0.10;1.00;;;;;;5061383;28;20685;-85
2024/01/08 08:38:16;;;;;;;14.60;8.87;;;0.10;99.90;;;;;;5071643;28;20173;-88
2024/01/08 08:40:43;;;;;;;12.98;8.30;;;0.00;1.00;;;;;;5069671;28;20225;-85
2024/01/08 08:43:09;;;;;;;15.50;9.63;;;0.00;1.00;;;;;;5072357;28;20181;-86
2024/01/08 08:45:34;;;;;;;10.97;8.43;;;0.00;15.30;;;;;;5072782;28;20204;-85
2024/01/08 08:48:00;;;;;;;13.53;8.80;;;-0.10;1.00;;;;;;5069633;28;20197;-85
2024/01/08 08:50:25;;;;;;;13.90;7.70;;;-0.10;1.00;;;;;;5073096;28;20959;-87
2024/01/08 08:52:51;;;;;;;9.00;6.87;;;-0.10;1.00;;;;;;5070952;28;20214;-85
2024/01/08 08:55:16;;;;;;;10.83;8.40;;;0.00;99.90;;;;;;5060018;28;20185;-85
2024/01/08 08:57:42;;;;;;;11.13;7.40;;;0.10;99.90;;;;;;5072572;28;20189;-85
2024/01/08 09:00:11;;;;;;;11.00;7.93;;;0.20;1.00;;;;;;5069895;28;20212;-86
2024/01/08 09:02:37;;;;;;;10.63;6.25;;;0.20;1.00;;;;;;5066531;28;20182;-87
2024/01/08 09:05:04;;;;;;;10.30;6.70;;;0.30;1.00;;;;;;5067582;28;20180;-85
2024/01/08 09:07:30;;;;;;;13.73;8.68;;;0.40;1.00;;;;;;5057026;28;20184;-85
2024/01/08 09:09:55;;;;;;;11.50;7.47;;;0.40;1.00;;;;;;5057417;28;20181;-85
2024/01/08 09:12:21;;;;;;;10.27;6.60;;;0.40;1.00;;;;;;5070105;28;20367;-86
2024/01/08 09:14:47;;;;;;;9.40;7.30;;;0.40;1.00;;;;;;5072469;28;20220;-87
2024/01/08 09:17:12;;;;;;;14.77;7.78;;;0.50;99.90;;;;;;5068310;28;20290;-86
2024/01/08 09:19:38;;;;;;;12.57;7.77;;;0.50;1.00;;;;;;5047905;28;20711;-86
2024/01/08 09:22:04;;;;;;;20.50;8.27;;;0.50;1.00;;;;;;5055752;28;20201;-85
2024/01/08 09:24:29;;;;;;;9.57;6.40;;;0.60;1.00;;;;;;5064975;28;20189;-86
2024/01/08 09:26:55;;;;;;;10.23;7.53;;;0.60;11.70;;;;;;5065276;28;20990;-85
2024/01/08 09:29:21;;;;;;;11.90;7.43;;;0.80;26.10;;;;;;5063427;28;20194;-87
2024/01/08 09:31:47;;;;;;;13.77;8.50;;;0.80;1.00;;;;;;5058918;28;21225;-86
2024/01/08 09:34:13;;;;;;;10.80;7.30;;;0.90;1.00;;;;;;5062333;28;20217;-86
2024/01/08 09:36:38;;;;;;;12.98;8.90;;;0.90;1.00;;;;;;5060702;28;20207;-86
2024/01/08 09:39:04;;;;;;;12.30;7.33;;;1.00;1.00;;;;;;5065270;28;20319;-86
2024/01/08 09:41:29;;;;;;;11.13;7.70;;;1.00;1.00;;;;;;5057913;28;20646;-86
2024/01/08 09:44:02;;;;;;;13.07;9.57;;;1.10;1.00;;;;;;5058436;28;20193;-86
2024/01/08 09:46:31;;;;;;;14.43;10.00;;;1.10;1.00;;;;;;5061510;28;20487;-85
2024/01/08 09:48:57;;;;;;;11.70;8.35;;;1.20;1.00;;;;;;5047989;28;20185;-84
2024/01/08 09:51:24;;;;;;;17.50;12.27;;;1.20;1.00;;;;;;5053915;28;20206;-84
2024/01/08 09:53:52;;;;;;;12.27;7.18;;;1.10;1.00;;;;;;5064567;28;20209;-85
2024/01/08 09:56:22;;;;;;;14.73;9.80;;;1.10;1.00;;;;;;5062174;28;20192;-85
2024/01/08 09:58:48;;;;;;;15.35;9.15;;;1.10;1.00;;;;;;5056989;28;20232;-85
2024/01/08 10:01:13;;;;;;;13.37;8.53;;;1.10;99.90;;;;;;5051110;28;20231;-85
2024/01/08 10:03:39;;;;;;;13.47;8.87;;;1.20;99.90;;;;;;5065719;28;20251;-86
2024/01/08 10:06:08;;;;;;;14.40;8.97;;;1.20;99.90;;;;;;5065522;28;20188;-86
2024/01/08 10:08:34;;;;;;;12.20;9.27;;;1.30;99.90;;;;;;5064781;28;20630;-87
2024/01/08 10:10:59;;;;;;;16.27;10.57;;;1.30;1.00;;;;;;5070061;28;20225;-86
2024/01/08 10:13:25;;;;;;;15.47;8.50;;;1.30;99.90;;;;;;5089425;22;20716;-88
2024/01/08 10:15:52;;;;;;;11.60;8.40;;;1.30;99.90;;;;;;5094357;28;20184;-85
2024/01/08 10:18:18;;;;;;;13.70;8.95;;;1.20;1.00;;;;;;5116361;28;20180;-85
2024/01/08 10:20:44;;;;;;;14.13;8.60;;;1.30;1.00;;;;;;5107920;28;20180;-87
2024/01/08 10:23:10;;;;;;;13.98;8.45;;;1.50;1.00;;;;;;5107449;28;20666;-84
2024/01/08 10:25:37;;;;;;;14.27;9.63;;;1.80;1.00;;;;;;5085203;28;20621;-87
2024/01/08 10:28:10;;;;;;;13.75;8.07;;;2.30;99.90;;;;;;5090770;28;20176;-86
2024/01/08 10:30:36;;;;;;;13.48;7.20;;;2.70;99.90;;;;;;5065383;28;20233;-87
2024/01/08 10:33:03;;;;;;;10.17;8.27;;;3.10;1.00;;;;;;5088267;28;20211;-84
2024/01/08 10:35:29;;;;;;;11.07;7.30;;;3.40;1.00;;;;;;5084084;28;20173;-85
2024/01/08 10:37:56;;;;;;;9.93;7.37;;;3.40;1.00;;;;;;5088935;28;20573;-84
2024/01/08 10:40:22;;;;;;;9.93;8.00;;;3.20;1.00;;;;;;5074459;28;20598;-85
2024/01/08 10:42:48;;;;;;;11.73;8.30;;;2.90;1.00;;;;;;5083336;28;20213;-84
2024/01/08 10:45:13;;;;;;;11.70;8.27;;;2.80;1.00;;;;;;5080709;28;20181;-84
2024/01/08 10:48:04;;;;;;;12.00;8.23;;;2.60;1.00;;;;;;5068645;28;20183;-84
2024/01/08 10:50:30;;;;;;;12.85;8.57;;;2.50;1.00;;;;;;5091524;28;20271;-87
2024/01/08 10:52:57;;;;;;;9.00;6.93;;;2.30;1.00;;;;;;5079447;28;20235;-85
2024/01/08 10:55:23;;;;;;;10.43;7.30;;;2.30;1.00;;;;;;5076332;28;20495;-87
2024/01/08 10:58:04;;;;;;;8.48;6.72;;;2.20;1.00;;;;;;5080739;28;20185;-85
2024/01/08 11:00:31;;;;;;;8.05;5.53;;;2.30;1.00;;;;;;5074062;28;20247;-86
2024/01/08 11:02:57;;;;;;;7.47;5.80;;;2.30;1.00;;;;;;5092120;28;20200;-86
2024/01/08 11:05:23;;;;;;;5.80;4.80;;;2.30;1.00;;;;;;5091733;28;20177;-84
2024/01/08 11:07:50;;;;;;;8.20;5.57;;;2.50;1.00;;;;;;5075553;28;20180;-85
2024/01/08 11:10:16;;;;;;;7.22;5.57;;;2.60;1.00;;;;;;5095797;28;20204;-84
2024/01/08 11:12:51;;;;;;;7.45;4.70;;;2.80;1.00;;;;;;5077015;28;20220;-85
2024/01/08 11:15:17;;;;;;;7.05;4.75;;;2.90;1.00;;;;;;5076973;28;20638;-86
2024/01/08 11:17:53;;;;;;;8.00;3.97;;;2.90;99.90;;;;;;5072819;28;20205;-85
2024/01/08 11:20:46;;;;;;;6.47;4.32;;;2.80;99.90;;;;;;5078807;28;20181;-86
2024/01/08 11:23:32;;;;;;;7.95;4.60;;;2.70;99.90;;;;;;5078274;28;20623;-86
2024/01/08 11:26:02;;;;;;;4.57;3.42;;;2.70;99.90;;;;;;5091892;28;20210;-86
2024/01/08 11:28:31;;;;;;;7.13;4.60;;;2.80;99.90;;;;;;5090642;28;20219;-86
2024/01/08 11:31:16;;;;;;;5.55;3.95;;;2.90;99.90;;;;;;5087810;28;20181;-86
2024/01/08 11:34:03;;;;;;;5.13;3.60;;;2.90;99.90;;;;;;5055418;28;20252;-86
2024/01/08 11:36:44;;;;;;;5.38;3.70;;;3.10;99.90;;;;;;5087832;28;20719;-85
2024/01/08 11:39:18;;;;;;;4.70;3.83;;;3.50;99.90;;;;;;5092868;28;20764;-87
2024/01/08 11:41:45;;;;;;;7.03;4.70;;;3.60;99.90;;;;;;5091154;28;20184;-86
2024/01/08 11:44:11;;;;;;;6.40;3.80;;;3.90;99.90;;;;;;5090547;28;20853;-84
2024/01/08 11:46:36;;;;;;;9.03;5.20;;;4.30;99.90;;;;;;5106762;28;20245;-86
2024/01/08 11:49:05;;;;;;;8.37;4.77;;;4.80;99.90;;;;;;5097351;28;20213;-85
2024/01/08 11:51:34;;;;;;;5.43;3.60;;;5.40;99.90;;;;;;5097528;28;20215;-84
2024/01/08 11:54:06;;;;;;;7.43;3.33;;;5.20;99.90;;;;;;5081063;28;20556;-86
2024/01/08 11:56:33;;;;;;;4.60;3.77;;;5.20;99.90;;;;;;5095069;28;20177;-87
2024/01/08 11:58:59;;;;;;;8.48;4.93;;;4.70;99.90;;;;;;5079100;28;20427;-86
2024/01/08 12:01:26;;;;;;;5.60;3.87;;;4.80;99.90;;;;;;5098484;28;20179;-85
2024/01/08 12:03:58;;;;;;;5.10;3.90;;;5.30;99.90;;;;;;5094392;28;20458;-85
2024/01/08 12:06:24;;;;;;;5.83;4.20;;;5.70;99.90;;;;;;5096919;28;20463;-87
2024/01/08 12:08:56;;;;;;;4.27;3.30;;;6.30;99.90;;;;;;5100406;28;20437;-89
2024/01/08 12:11:25;;;;;;;4.03;3.30;;;6.40;99.90;;;;;;5090863;28;20513;-85
2024/01/08 12:13:54;;;;;;;5.63;4.03;;;6.60;99.90;;;;;;5098943;28;21002;-86
2024/01/08 12:16:21;;;;;;;6.13;4.20;;;6.60;99.90;;;;;;5069343;28;20435;-86
2024/01/08 12:18:46;;;;;;;5.47;3.70;;;6.80;99.90;;;;;;5084705;28;20422;-86
2024/01/08 12:21:12;;;;;;;6.20;4.23;;;7.20;99.90;;;;;;5099326;28;20519;-86
2024/01/08 12:23:38;;;;;;;7.77;3.43;;;7.30;99.90;;;;;;5083063;28;20205;-86
2024/01/08 12:26:04;;;;;;;7.40;4.00;;;7.40;99.90;;;;;;5097827;28;20182;-87
2024/01/08 12:28:30;;;;;;;5.03;4.53;;;7.50;99.90;;;;;;5093233;28;20187;-85
2024/01/08 12:30:58;;;;;;;8.00;5.30;;;7.30;99.90;;;;;;5095961;28;20439;-85
2024/01/08 12:33:24;;;;;;;6.80;4.00;;;7.30;99.90;;;;;;5098604;28;20474;-85
2024/01/08 12:35:54;;;;;;;6.20;4.53;;;7.30;99.90;;;;;;5105614;28;20423;-86
2024/01/08 12:38:20;;;;;;;5.80;4.47;;;7.20;99.90;;;;;;5114682;28;20173;-84
2024/01/08 12:40:51;;;;;;;7.37;4.43;;;7.30;99.90;;;;;;5098545;28;20438;-87
2024/01/08 12:43:18;;;;;;;4.87;3.47;;;7.30;99.90;;;;;;5110604;28;20492;-86
2024/01/08 12:45:46;;;;;;;7.03;3.80;;;7.20;99.90;;;;;;5100887;28;20948;-88
2024/01/08 12:48:12;;;;;;;5.87;4.13;;;7.10;99.90;;;;;;5082384;28;21014;-85
2024/01/08 12:50:37;;;;;;;7.63;4.20;;;7.10;99.90;;;;;;5104197;28;20520;-85
2024/01/08 12:53:03;;;;;;;8.43;5.07;;;6.80;99.90;;;;;;5084686;28;20220;-84
2024/01/08 12:55:28;;;;;;;6.83;4.30;;;6.90;99.90;;;;;;5101253;28;20294;-85